Galbraith Lake, AK

5:01 AM AKDT on August 30, 2015 (GMT -0800)
MesoWest | | Change Station
CLOSE
Current Station
Personal Weather Station
Location: Bettles Field, AK
Elevation: 2493 ft
Nearby Weather Stations

Elev 2493 ft 68.64 °N, 149.57 °W | Updated 41 minutes ago

Overcast
Overcast
30 °F
Feels Like 19 °F
N
14
Wind Variable Wind from ENE
Gusts 19.0 mph

Today
High -- | Low -- °F
--% Chance of Precip.
Yesterday
High -- | Low -- °F
Precip. -- in
6:14 AM 9:40 PM
Full, 99% visible
Pressure 29.35 in
Visibility 8.0 miles
Clouds Overcast 600 ft
Windchill 19 °F
Dew Point 28 °F
Humidity 93%
Rainfall in
Snow Depth Not available.
UV 0 out of 12
Pollen Not available.
Air Quality Not available.
Flu Activity Not available.
METAR PAKP 301256Z AUTO 03006KT 8SM OVC006 M01/M07 A2935 RMK AO1
Pressure 29.35 in
Visibility 8.0 miles
Clouds Overcast 600 ft
Windchill 19 °F
Dew Point 28 °F
Humidity 93%
Rainfall in
Snow Depth Not available.
UV 0 out of 12
Pollen Not available.
Air Quality Not available.
Flu Activity Not available.
METAR PAKP 301256Z AUTO 03006KT 8SM OVC006 M01/M07 A2935 RMK AO1

10-Day Weather Forecast

×

Almanac

Astronomy

Aug. 30, 2015 Rise Set
Actual Time
Civil Twilight
Nautical Twilight
Astronomical Twilight
Moon
Length of Visible Light
Length of Day
Tomorrow will be .
, % of the Moon is Illuminated

Today's Extremes

State Highs State Lows

Community

WunderPhotos

Upload Photos

1,850,945 photos uploaded!

WunderBlogs® & News

Nearby

Air Quality

  Air Quality AQ Index Pollutant
Not available.

Snow Depth

Station Depth Elevation

Earthquake Activity

City Distance Mag. Time & Date
Minimum magnitude displayed is 2.5.

Coastal Water Temperatures

Place Temperature

Stations

Nearby Weather Stations

Station Location Temp. Windchill Dew Point Humidity Wind Precip. Elev Updated Type